KBYG/BYG METAR and TAF weather

Enter ICAO airport designator
Station Type Date Time Source
KBYG METAR 2021/05/12 00:53 UTC NOAA

KBYG 120053Z AUTO 13008G17KT 10SM BKN060 10/02 A3018 RMK AO2 SLP212 T01000017


Station Type Date Time Source
KBYG Decoded METAR 2021/05/12 00:53 UTC NOAA

BUFFALO JOHNSON COUNTY AIRPORT , WY, United States (KBYG) 44-23N 106-43W 1497M
May 11, 2021 - 08:53 PM EDT / 2021.05.12 0053 UTC
Wind: from the SE (130 degrees) at 9 MPH (8 KT) gusting to 20 MPH (17 KT):0
Visibility: 10 mile(s):0
Sky conditions: mostly cloudy
Temperature: 50.0 F (10.0 C)
Dew Point: 35.1 F (1.7 C)
Relative Humidity: 56%
Pressure (altimeter): 30.18 in. Hg (1022 hPa)
ob: KBYG 120053Z AUTO 13008G17KT 10SM BKN060 10/02 A3018 RMK AO2 SLP212 T01000017
cycle: 1

Station Type Date Time Source
KBYG TAF UTC NOAA

Error!

Example: see airport list